sensor_id;sensor_type;location;lat;lon;timestamp;P1;durP1;ratioP1;P2;durP2;ratioP2
5349;SDS011;2697;42.144;24.794;2023-05-29T00:00:38;16.60;;;6.37;;
5349;SDS011;2697;42.144;24.794;2023-05-29T00:03:04;20.00;;;6.00;;
5349;SDS011;2697;42.144;24.794;2023-05-29T00:05:30;9.60;;;5.30;;
5349;SDS011;2697;42.144;24.794;2023-05-29T00:07:55;12.80;;;5.23;;
5349;SDS011;2697;42.144;24.794;2023-05-29T00:10:21;11.87;;;5.73;;
5349;SDS011;2697;42.144;24.794;2023-05-29T00:12:46;14.20;;;5.60;;
5349;SDS011;2697;42.144;24.794;2023-05-29T00:15:12;12.20;;;7.57;;
5349;SDS011;2697;42.144;24.794;2023-05-29T00:17:37;28.73;;;4.63;;
5349;SDS011;2697;42.144;24.794;2023-05-29T00:20:05;8.50;;;4.87;;
5349;SDS011;2697;42.144;24.794;2023-05-29T00:22:37;19.57;;;4.90;;
5349;SDS011;2697;42.144;24.794;2023-05-29T00:25:05;22.87;;;5.03;;
5349;SDS011;2697;42.144;24.794;2023-05-29T00:27:32;11.80;;;5.03;;
5349;SDS011;2697;42.144;24.794;2023-05-29T00:29:59;28.27;;;4.93;;
5349;SDS011;2697;42.144;24.794;2023-05-29T00:32:25;12.93;;;4.67;;
5349;SDS011;2697;42.144;24.794;2023-05-29T00:34:50;8.87;;;3.67;;
5349;SDS011;2697;42.144;24.794;2023-05-29T00:37:16;10.50;;;3.97;;
5349;SDS011;2697;42.144;24.794;2023-05-29T00:39:42;13.17;;;4.93;;
5349;SDS011;2697;42.144;24.794;2023-05-29T00:42:07;22.10;;;5.17;;
5349;SDS011;2697;42.144;24.794;2023-05-29T00:44:32;7.77;;;5.80;;
5349;SDS011;2697;42.144;24.794;2023-05-29T00:46:58;8.07;;;5.23;;
5349;SDS011;2697;42.144;24.794;2023-05-29T00:49:23;9.13;;;5.53;;
5349;SDS011;2697;42.144;24.794;2023-05-29T00:51:49;14.80;;;5.70;;
5349;SDS011;2697;42.144;24.794;2023-05-29T00:54:17;9.57;;;5.00;;
5349;SDS011;2697;42.144;24.794;2023-05-29T00:56:46;7.40;;;5.00;;
5349;SDS011;2697;42.144;24.794;2023-05-29T00:59:12;16.53;;;5.87;;
5349;SDS011;2697;42.144;24.794;2023-05-29T01:01:38;16.20;;;5.77;;
5349;SDS011;2697;42.144;24.794;2023-05-29T01:04:05;13.27;;;6.00;;
5349;SDS011;2697;42.144;24.794;2023-05-29T01:06:31;10.10;;;5.47;;
5349;SDS011;2697;42.144;24.794;2023-05-29T01:08:57;9.30;;;5.13;;
5349;SDS011;2697;42.144;24.794;2023-05-29T01:11:31;17.90;;;6.70;;
5349;SDS011;2697;42.144;24.794;2023-05-29T01:14:24;11.33;;;6.50;;
5349;SDS011;2697;42.144;24.794;2023-05-29T01:17:22;8.20;;;5.50;;
5349;SDS011;2697;42.144;24.794;2023-05-29T01:25:37;12.53;;;5.00;;
5349;SDS011;2697;42.144;24.794;2023-05-29T01:28:21;15.50;;;5.97;;
5349;SDS011;2697;42.144;24.794;2023-05-29T01:30:52;15.80;;;5.30;;
5349;SDS011;2697;42.144;24.794;2023-05-29T01:33:19;10.33;;;5.40;;
5349;SDS011;2697;42.144;24.794;2023-05-29T01:35:45;11.57;;;5.03;;
5349;SDS011;2697;42.144;24.794;2023-05-29T01:38:10;12.77;;;4.93;;
5349;SDS011;2697;42.144;24.794;2023-05-29T01:40:36;13.03;;;4.67;;
5349;SDS011;2697;42.144;24.794;2023-05-29T01:43:02;11.47;;;4.77;;
5349;SDS011;2697;42.144;24.794;2023-05-29T01:45:28;7.63;;;4.03;;
5349;SDS011;2697;42.144;24.794;2023-05-29T01:47:54;18.17;;;3.53;;
5349;SDS011;2697;42.144;24.794;2023-05-29T01:50:20;8.27;;;4.90;;
5349;SDS011;2697;42.144;24.794;2023-05-29T01:52:48;7.27;;;4.60;;
5349;SDS011;2697;42.144;24.794;2023-05-29T01:55:14;10.47;;;4.93;;
5349;SDS011;2697;42.144;24.794;2023-05-29T01:57:40;9.43;;;4.50;;
5349;SDS011;2697;42.144;24.794;2023-05-29T02:00:06;13.93;;;5.10;;
5349;SDS011;2697;42.144;24.794;2023-05-29T02:02:40;9.10;;;4.13;;
5349;SDS011;2697;42.144;24.794;2023-05-29T02:05:06;8.67;;;5.00;;
5349;SDS011;2697;42.144;24.794;2023-05-29T02:07:33;11.03;;;4.30;;
5349;SDS011;2697;42.144;24.794;2023-05-29T02:09:59;19.93;;;4.93;;
5349;SDS011;2697;42.144;24.794;2023-05-29T02:12:25;4.87;;;4.13;;
5349;SDS011;2697;42.144;24.794;2023-05-29T02:14:50;5.90;;;4.03;;
5349;SDS011;2697;42.144;24.794;2023-05-29T02:17:15;15.93;;;4.10;;
5349;SDS011;2697;42.144;24.794;2023-05-29T02:19:41;6.40;;;4.50;;
5349;SDS011;2697;42.144;24.794;2023-05-29T02:22:07;13.53;;;5.00;;
5349;SDS011;2697;42.144;24.794;2023-05-29T02:24:32;13.67;;;4.30;;
5349;SDS011;2697;42.144;24.794;2023-05-29T02:26:58;5.70;;;3.80;;
5349;SDS011;2697;42.144;24.794;2023-05-29T02:29:23;9.83;;;4.50;;
5349;SDS011;2697;42.144;24.794;2023-05-29T02:31:49;4.70;;;3.93;;
5349;SDS011;2697;42.144;24.794;2023-05-29T02:34:14;12.63;;;4.30;;
5349;SDS011;2697;42.144;24.794;2023-05-29T02:36:39;6.40;;;4.37;;
5349;SDS011;2697;42.144;24.794;2023-05-29T02:39:05;7.13;;;4.37;;
5349;SDS011;2697;42.144;24.794;2023-05-29T02:41:30;8.60;;;4.23;;
5349;SDS011;2697;42.144;24.794;2023-05-29T02:43:57;8.27;;;4.60;;
5349;SDS011;2697;42.144;24.794;2023-05-29T02:46:23;17.63;;;6.80;;
5349;SDS011;2697;42.144;24.794;2023-05-29T02:48:48;6.80;;;3.90;;
5349;SDS011;2697;42.144;24.794;2023-05-29T02:51:14;5.90;;;4.00;;
5349;SDS011;2697;42.144;24.794;2023-05-29T02:53:39;11.80;;;4.33;;
5349;SDS011;2697;42.144;24.794;2023-05-29T02:56:05;8.60;;;4.20;;
5349;SDS011;2697;42.144;24.794;2023-05-29T02:58:33;6.60;;;3.83;;
5349;SDS011;2697;42.144;24.794;2023-05-29T03:01:00;7.27;;;4.33;;
5349;SDS011;2697;42.144;24.794;2023-05-29T03:03:27;7.77;;;4.13;;
5349;SDS011;2697;42.144;24.794;2023-05-29T03:05:52;10.27;;;4.67;;
5349;SDS011;2697;42.144;24.794;2023-05-29T03:08:18;9.33;;;4.50;;
5349;SDS011;2697;42.144;24.794;2023-05-29T03:10:43;14.30;;;4.30;;
5349;SDS011;2697;42.144;24.794;2023-05-29T03:13:09;8.77;;;4.80;;
5349;SDS011;2697;42.144;24.794;2023-05-29T03:15:35;12.33;;;5.67;;
5349;SDS011;2697;42.144;24.794;2023-05-29T03:18:00;9.30;;;4.70;;
5349;SDS011;2697;42.144;24.794;2023-05-29T03:20:26;11.10;;;5.37;;
5349;SDS011;2697;42.144;24.794;2023-05-29T03:22:53;11.80;;;4.80;;
5349;SDS011;2697;42.144;24.794;2023-05-29T03:25:18;17.33;;;6.00;;
5349;SDS011;2697;42.144;24.794;2023-05-29T03:27:45;18.60;;;6.17;;
5349;SDS011;2697;42.144;24.794;2023-05-29T03:30:11;12.37;;;5.17;;
5349;SDS011;2697;42.144;24.794;2023-05-29T03:32:36;9.80;;;5.03;;
5349;SDS011;2697;42.144;24.794;2023-05-29T03:35:02;17.73;;;5.90;;
5349;SDS011;2697;42.144;24.794;2023-05-29T03:37:28;9.83;;;4.57;;
5349;SDS011;2697;42.144;24.794;2023-05-29T03:39:54;8.80;;;5.50;;
5349;SDS011;2697;42.144;24.794;2023-05-29T03:42:20;9.30;;;5.80;;
5349;SDS011;2697;42.144;24.794;2023-05-29T03:44:45;11.73;;;6.77;;
5349;SDS011;2697;42.144;24.794;2023-05-29T03:47:11;20.63;;;5.70;;
5349;SDS011;2697;42.144;24.794;2023-05-29T03:49:36;16.63;;;5.10;;
5349;SDS011;2697;42.144;24.794;2023-05-29T03:52:02;11.40;;;4.57;;
5349;SDS011;2697;42.144;24.794;2023-05-29T03:54:27;10.60;;;4.87;;
5349;SDS011;2697;42.144;24.794;2023-05-29T03:56:53;10.60;;;7.43;;
5349;SDS011;2697;42.144;24.794;2023-05-29T03:59:18;12.07;;;6.03;;
5349;SDS011;2697;42.144;24.794;2023-05-29T04:01:43;11.67;;;6.57;;
5349;SDS011;2697;42.144;24.794;2023-05-29T04:04:09;15.57;;;5.83;;
5349;SDS011;2697;42.144;24.794;2023-05-29T04:06:35;13.77;;;5.33;;
5349;SDS011;2697;42.144;24.794;2023-05-29T04:09:03;10.10;;;5.60;;
5349;SDS011;2697;42.144;24.794;2023-05-29T04:11:34;14.20;;;6.77;;
5349;SDS011;2697;42.144;24.794;2023-05-29T04:14:00;11.63;;;5.87;;
5349;SDS011;2697;42.144;24.794;2023-05-29T04:16:27;17.63;;;6.30;;
5349;SDS011;2697;42.144;24.794;2023-05-29T04:18:53;12.53;;;5.00;;
5349;SDS011;2697;42.144;24.794;2023-05-29T04:21:19;10.33;;;4.50;;
5349;SDS011;2697;42.144;24.794;2023-05-29T04:23:45;12.57;;;4.83;;
5349;SDS011;2697;42.144;24.794;2023-05-29T04:26:10;6.10;;;4.50;;
5349;SDS011;2697;42.144;24.794;2023-05-29T04:28:36;5.10;;;3.97;;
5349;SDS011;2697;42.144;24.794;2023-05-29T04:31:02;9.80;;;4.07;;
5349;SDS011;2697;42.144;24.794;2023-05-29T04:33:28;13.30;;;4.50;;
5349;SDS011;2697;42.144;24.794;2023-05-29T04:35:54;17.67;;;4.30;;
5349;SDS011;2697;42.144;24.794;2023-05-29T04:38:20;14.53;;;4.63;;
5349;SDS011;2697;42.144;24.794;2023-05-29T04:40:50;12.60;;;4.93;;
5349;SDS011;2697;42.144;24.794;2023-05-29T04:43:15;13.80;;;4.27;;
5349;SDS011;2697;42.144;24.794;2023-05-29T04:45:41;13.57;;;4.63;;
5349;SDS011;2697;42.144;24.794;2023-05-29T04:48:07;10.70;;;4.70;;
5349;SDS011;2697;42.144;24.794;2023-05-29T04:50:33;19.97;;;6.40;;
5349;SDS011;2697;42.144;24.794;2023-05-29T04:53:00;13.07;;;5.47;;
5349;SDS011;2697;42.144;24.794;2023-05-29T04:55:26;15.97;;;5.00;;
5349;SDS011;2697;42.144;24.794;2023-05-29T04:57:52;9.10;;;4.50;;
5349;SDS011;2697;42.144;24.794;2023-05-29T05:00:18;8.97;;;4.73;;
5349;SDS011;2697;42.144;24.794;2023-05-29T05:02:43;14.00;;;4.13;;
5349;SDS011;2697;42.144;24.794;2023-05-29T05:05:09;13.53;;;4.53;;
5349;SDS011;2697;42.144;24.794;2023-05-29T05:07:35;16.80;;;4.63;;
5349;SDS011;2697;42.144;24.794;2023-05-29T05:10:01;12.33;;;5.60;;
5349;SDS011;2697;42.144;24.794;2023-05-29T05:12:28;12.20;;;5.53;;
5349;SDS011;2697;42.144;24.794;2023-05-29T05:14:53;10.90;;;4.43;;
5349;SDS011;2697;42.144;24.794;2023-05-29T05:17:18;9.63;;;4.27;;
5349;SDS011;2697;42.144;24.794;2023-05-29T05:19:45;10.27;;;4.33;;
5349;SDS011;2697;42.144;24.794;2023-05-29T05:22:10;11.73;;;5.23;;
5349;SDS011;2697;42.144;24.794;2023-05-29T05:24:36;13.30;;;5.67;;
5349;SDS011;2697;42.144;24.794;2023-05-29T05:27:01;12.33;;;4.33;;
5349;SDS011;2697;42.144;24.794;2023-05-29T05:29:27;27.37;;;6.80;;
5349;SDS011;2697;42.144;24.794;2023-05-29T05:31:52;9.50;;;4.87;;
5349;SDS011;2697;42.144;24.794;2023-05-29T05:34:17;14.37;;;4.53;;
5349;SDS011;2697;42.144;24.794;2023-05-29T05:36:43;9.70;;;4.30;;
5349;SDS011;2697;42.144;24.794;2023-05-29T05:39:08;8.20;;;4.13;;
5349;SDS011;2697;42.144;24.794;2023-05-29T05:41:34;6.80;;;4.23;;
5349;SDS011;2697;42.144;24.794;2023-05-29T05:43:59;11.67;;;3.80;;
5349;SDS011;2697;42.144;24.794;2023-05-29T05:46:25;15.57;;;4.50;;
5349;SDS011;2697;42.144;24.794;2023-05-29T05:48:50;5.83;;;3.60;;
5349;SDS011;2697;42.144;24.794;2023-05-29T05:51:16;7.20;;;4.63;;
5349;SDS011;2697;42.144;24.794;2023-05-29T05:53:42;6.43;;;4.90;;
5349;SDS011;2697;42.144;24.794;2023-05-29T05:56:07;13.10;;;4.33;;
5349;SDS011;2697;42.144;24.794;2023-05-29T05:58:33;7.03;;;4.40;;
5349;SDS011;2697;42.144;24.794;2023-05-29T06:00:58;18.03;;;5.00;;
5349;SDS011;2697;42.144;24.794;2023-05-29T06:03:24;21.03;;;5.17;;
5349;SDS011;2697;42.144;24.794;2023-05-29T06:05:50;8.20;;;4.57;;
5349;SDS011;2697;42.144;24.794;2023-05-29T06:08:17;12.60;;;5.00;;
5349;SDS011;2697;42.144;24.794;2023-05-29T06:10:42;13.17;;;4.73;;
5349;SDS011;2697;42.144;24.794;2023-05-29T06:13:07;28.97;;;6.03;;
5349;SDS011;2697;42.144;24.794;2023-05-29T06:15:33;6.87;;;3.90;;
5349;SDS011;2697;42.144;24.794;2023-05-29T06:18:00;7.53;;;3.63;;
5349;SDS011;2697;42.144;24.794;2023-05-29T06:20:26;11.93;;;5.80;;
5349;SDS011;2697;42.144;24.794;2023-05-29T06:22:51;8.47;;;4.40;;
5349;SDS011;2697;42.144;24.794;2023-05-29T06:25:16;7.27;;;3.63;;
5349;SDS011;2697;42.144;24.794;2023-05-29T06:27:45;14.33;;;5.40;;
5349;SDS011;2697;42.144;24.794;2023-05-29T06:30:11;7.90;;;3.67;;
5349;SDS011;2697;42.144;24.794;2023-05-29T06:32:37;8.13;;;4.30;;
5349;SDS011;2697;42.144;24.794;2023-05-29T06:35:03;7.80;;;3.87;;
5349;SDS011;2697;42.144;24.794;2023-05-29T06:37:28;12.87;;;4.87;;
5349;SDS011;2697;42.144;24.794;2023-05-29T06:39:54;7.70;;;3.90;;
5349;SDS011;2697;42.144;24.794;2023-05-29T06:42:19;17.40;;;4.60;;
5349;SDS011;2697;42.144;24.794;2023-05-29T06:44:45;9.20;;;3.97;;
5349;SDS011;2697;42.144;24.794;2023-05-29T06:47:10;14.13;;;4.30;;
5349;SDS011;2697;42.144;24.794;2023-05-29T06:49:35;9.07;;;4.97;;
5349;SDS011;2697;42.144;24.794;2023-05-29T06:52:01;8.27;;;4.10;;
5349;SDS011;2697;42.144;24.794;2023-05-29T06:54:26;6.50;;;3.40;;
5349;SDS011;2697;42.144;24.794;2023-05-29T06:56:52;13.00;;;4.37;;
5349;SDS011;2697;42.144;24.794;2023-05-29T06:59:18;28.37;;;4.47;;
5349;SDS011;2697;42.144;24.794;2023-05-29T07:01:44;6.60;;;4.33;;
5349;SDS011;2697;42.144;24.794;2023-05-29T07:04:10;11.13;;;4.53;;
5349;SDS011;2697;42.144;24.794;2023-05-29T07:06:36;6.57;;;3.80;;
5349;SDS011;2697;42.144;24.794;2023-05-29T07:09:01;9.97;;;4.23;;
5349;SDS011;2697;42.144;24.794;2023-05-29T07:11:27;6.50;;;3.63;;
5349;SDS011;2697;42.144;24.794;2023-05-29T07:13:55;20.17;;;4.70;;
5349;SDS011;2697;42.144;24.794;2023-05-29T07:16:21;3.57;;;2.90;;
5349;SDS011;2697;42.144;24.794;2023-05-29T07:18:46;7.63;;;4.37;;
5349;SDS011;2697;42.144;24.794;2023-05-29T07:21:11;11.30;;;4.80;;
5349;SDS011;2697;42.144;24.794;2023-05-29T07:23:37;8.90;;;3.60;;
5349;SDS011;2697;42.144;24.794;2023-05-29T07:26:02;8.43;;;4.00;;
5349;SDS011;2697;42.144;24.794;2023-05-29T07:28:27;8.67;;;4.00;;
5349;SDS011;2697;42.144;24.794;2023-05-29T07:30:53;5.27;;;3.13;;
5349;SDS011;2697;42.144;24.794;2023-05-29T07:33:18;16.70;;;4.20;;
5349;SDS011;2697;42.144;24.794;2023-05-29T07:35:44;5.63;;;2.93;;
5349;SDS011;2697;42.144;24.794;2023-05-29T07:38:09;17.10;;;4.37;;
5349;SDS011;2697;42.144;24.794;2023-05-29T07:40:35;10.47;;;4.03;;
5349;SDS011;2697;42.144;24.794;2023-05-29T07:43:00;11.60;;;3.90;;
5349;SDS011;2697;42.144;24.794;2023-05-29T07:45:26;4.60;;;3.57;;
5349;SDS011;2697;42.144;24.794;2023-05-29T07:47:52;23.17;;;3.37;;
5349;SDS011;2697;42.144;24.794;2023-05-29T07:50:17;9.00;;;3.90;;
5349;SDS011;2697;42.144;24.794;2023-05-29T07:52:43;6.40;;;4.60;;
5349;SDS011;2697;42.144;24.794;2023-05-29T07:55:09;4.73;;;3.60;;
5349;SDS011;2697;42.144;24.794;2023-05-29T07:57:34;12.93;;;3.30;;
5349;SDS011;2697;42.144;24.794;2023-05-29T08:00:00;9.60;;;4.57;;
5349;SDS011;2697;42.144;24.794;2023-05-29T08:02:30;11.53;;;4.33;;
5349;SDS011;2697;42.144;24.794;2023-05-29T08:04:56;5.17;;;3.87;;
5349;SDS011;2697;42.144;24.794;2023-05-29T08:07:21;6.70;;;4.20;;
5349;SDS011;2697;42.144;24.794;2023-05-29T08:09:46;6.73;;;3.30;;
5349;SDS011;2697;42.144;24.794;2023-05-29T08:12:12;13.10;;;4.30;;
5349;SDS011;2697;42.144;24.794;2023-05-29T08:14:37;10.63;;;4.10;;
5349;SDS011;2697;42.144;24.794;2023-05-29T08:17:03;8.70;;;4.47;;
5349;SDS011;2697;42.144;24.794;2023-05-29T08:19:28;7.73;;;3.47;;
5349;SDS011;2697;42.144;24.794;2023-05-29T08:21:54;8.40;;;3.80;;
5349;SDS011;2697;42.144;24.794;2023-05-29T08:24:19;4.80;;;3.30;;
5349;SDS011;2697;42.144;24.794;2023-05-29T08:26:45;9.20;;;3.90;;
5349;SDS011;2697;42.144;24.794;2023-05-29T08:29:10;11.33;;;4.03;;
5349;SDS011;2697;42.144;24.794;2023-05-29T08:31:36;8.33;;;4.20;;
5349;SDS011;2697;42.144;24.794;2023-05-29T08:34:01;6.90;;;4.00;;
5349;SDS011;2697;42.144;24.794;2023-05-29T08:36:26;9.60;;;3.53;;
5349;SDS011;2697;42.144;24.794;2023-05-29T08:38:52;5.03;;;3.40;;
5349;SDS011;2697;42.144;24.794;2023-05-29T08:41:26;9.90;;;3.20;;
5349;SDS011;2697;42.144;24.794;2023-05-29T08:43:59;4.13;;;3.20;;
5349;SDS011;2697;42.144;24.794;2023-05-29T08:46:28;10.17;;;3.50;;
5349;SDS011;2697;42.144;24.794;2023-05-29T08:48:54;5.47;;;3.33;;
5349;SDS011;2697;42.144;24.794;2023-05-29T08:51:23;8.00;;;3.50;;
5349;SDS011;2697;42.144;24.794;2023-05-29T08:53:56;4.70;;;3.00;;
5349;SDS011;2697;42.144;24.794;2023-05-29T08:56:22;6.93;;;3.00;;
5349;SDS011;2697;42.144;24.794;2023-05-29T08:58:48;9.23;;;3.37;;
5349;SDS011;2697;42.144;24.794;2023-05-29T09:01:14;4.50;;;3.27;;
5349;SDS011;2697;42.144;24.794;2023-05-29T09:03:40;9.43;;;2.60;;
5349;SDS011;2697;42.144;24.794;2023-05-29T09:06:06;2.80;;;2.50;;
5349;SDS011;2697;42.144;24.794;2023-05-29T09:08:33;4.33;;;3.30;;
5349;SDS011;2697;42.144;24.794;2023-05-29T09:10:59;12.43;;;3.80;;
5349;SDS011;2697;42.144;24.794;2023-05-29T09:13:25;4.47;;;2.93;;
5349;SDS011;2697;42.144;24.794;2023-05-29T09:15:57;3.70;;;2.83;;
5349;SDS011;2697;42.144;24.794;2023-05-29T09:18:23;4.90;;;3.07;;
5349;SDS011;2697;42.144;24.794;2023-05-29T09:20:48;4.50;;;3.37;;
5349;SDS011;2697;42.144;24.794;2023-05-29T09:23:14;5.20;;;3.70;;
5349;SDS011;2697;42.144;24.794;2023-05-29T09:25:40;6.80;;;4.17;;
5349;SDS011;2697;42.144;24.794;2023-05-29T09:28:07;11.10;;;4.00;;
5349;SDS011;2697;42.144;24.794;2023-05-29T09:32:59;10.47;;;4.20;;
5349;SDS011;2697;42.144;24.794;2023-05-29T09:35:26;6.90;;;3.77;;
5349;SDS011;2697;42.144;24.794;2023-05-29T09:37:57;7.57;;;3.27;;
5349;SDS011;2697;42.144;24.794;2023-05-29T09:40:22;5.17;;;3.50;;
5349;SDS011;2697;42.144;24.794;2023-05-29T09:42:47;5.73;;;3.20;;
5349;SDS011;2697;42.144;24.794;2023-05-29T09:45:13;3.53;;;2.80;;
5349;SDS011;2697;42.144;24.794;2023-05-29T09:47:42;6.17;;;3.17;;
5349;SDS011;2697;42.144;24.794;2023-05-29T09:50:14;4.40;;;2.97;;
5349;SDS011;2697;42.144;24.794;2023-05-29T09:52:44;7.20;;;3.37;;
5349;SDS011;2697;42.144;24.794;2023-05-29T09:55:09;6.37;;;3.03;;
5349;SDS011;2697;42.144;24.794;2023-05-29T09:57:35;6.93;;;3.30;;
5349;SDS011;2697;42.144;24.794;2023-05-29T10:00:02;5.67;;;3.03;;
5349;SDS011;2697;42.144;24.794;2023-05-29T10:02:28;8.97;;;3.63;;
5349;SDS011;2697;42.144;24.794;2023-05-29T10:04:54;8.80;;;3.60;;
5349;SDS011;2697;42.144;24.794;2023-05-29T10:07:24;11.33;;;3.67;;
5349;SDS011;2697;42.144;24.794;2023-05-29T10:09:53;15.53;;;3.60;;
5349;SDS011;2697;42.144;24.794;2023-05-29T10:12:25;6.93;;;3.17;;
5349;SDS011;2697;42.144;24.794;2023-05-29T10:14:52;6.97;;;3.47;;
5349;SDS011;2697;42.144;24.794;2023-05-29T10:17:22;9.63;;;4.23;;
5349;SDS011;2697;42.144;24.794;2023-05-29T10:19:50;4.43;;;3.17;;
5349;SDS011;2697;42.144;24.794;2023-05-29T10:22:20;5.90;;;3.47;;
5349;SDS011;2697;42.144;24.794;2023-05-29T10:24:50;5.33;;;2.90;;
5349;SDS011;2697;42.144;24.794;2023-05-29T10:27:16;7.87;;;3.67;;
5349;SDS011;2697;42.144;24.794;2023-05-29T10:29:45;4.43;;;2.70;;
5349;SDS011;2697;42.144;24.794;2023-05-29T10:33:04;7.57;;;3.43;;
5349;SDS011;2697;42.144;24.794;2023-05-29T10:35:43;7.30;;;3.37;;
5349;SDS011;2697;42.144;24.794;2023-05-29T10:38:13;8.83;;;3.57;;
5349;SDS011;2697;42.144;24.794;2023-05-29T10:40:41;7.43;;;3.33;;
5349;SDS011;2697;42.144;24.794;2023-05-29T10:43:07;2.97;;;2.67;;
5349;SDS011;2697;42.144;24.794;2023-05-29T10:45:47;3.27;;;2.97;;
5349;SDS011;2697;42.144;24.794;2023-05-29T10:50:42;6.23;;;3.63;;
5349;SDS011;2697;42.144;24.794;2023-05-29T10:53:14;4.63;;;3.43;;
5349;SDS011;2697;42.144;24.794;2023-05-29T10:55:41;5.13;;;4.13;;
5349;SDS011;2697;42.144;24.794;2023-05-29T10:58:13;13.20;;;4.47;;
5349;SDS011;2697;42.144;24.794;2023-05-29T11:00:40;10.67;;;4.00;;
5349;SDS011;2697;42.144;24.794;2023-05-29T11:03:08;6.60;;;3.60;;
5349;SDS011;2697;42.144;24.794;2023-05-29T11:05:34;6.33;;;4.33;;
5349;SDS011;2697;42.144;24.794;2023-05-29T11:08:00;10.53;;;3.07;;
5349;SDS011;2697;42.144;24.794;2023-05-29T11:13:26;4.97;;;3.23;;
5349;SDS011;2697;42.144;24.794;2023-05-29T11:18:42;7.70;;;2.83;;
5349;SDS011;2697;42.144;24.794;2023-05-29T11:23:57;4.67;;;3.47;;
5349;SDS011;2697;42.144;24.794;2023-05-29T11:26:25;5.50;;;3.50;;
5349;SDS011;2697;42.144;24.794;2023-05-29T11:28:51;12.33;;;3.60;;
5349;SDS011;2697;42.144;24.794;2023-05-29T11:31:17;9.13;;;3.30;;
5349;SDS011;2697;42.144;24.794;2023-05-29T11:33:48;5.77;;;3.10;;
5349;SDS011;2697;42.144;24.794;2023-05-29T11:36:16;11.60;;;3.23;;
5349;SDS011;2697;42.144;24.794;2023-05-29T11:38:43;7.13;;;4.20;;
5349;SDS011;2697;42.144;24.794;2023-05-29T11:41:09;11.00;;;4.13;;
5349;SDS011;2697;42.144;24.794;2023-05-29T11:43:34;5.60;;;3.67;;
5349;SDS011;2697;42.144;24.794;2023-05-29T11:46:00;5.60;;;2.85;;
5349;SDS011;2697;42.144;24.794;2023-05-29T11:48:25;8.40;;;3.65;;
5349;SDS011;2697;42.144;24.794;2023-05-29T11:50:51;5.05;;;2.72;;
5349;SDS011;2697;42.144;24.794;2023-05-29T11:53:18;6.97;;;3.70;;
5349;SDS011;2697;42.144;24.794;2023-05-29T11:55:44;5.50;;;3.40;;
5349;SDS011;2697;42.144;24.794;2023-05-29T11:58:09;4.63;;;3.53;;
5349;SDS011;2697;42.144;24.794;2023-05-29T12:00:35;10.00;;;3.13;;
5349;SDS011;2697;42.144;24.794;2023-05-29T12:03:01;3.73;;;2.60;;
5349;SDS011;2697;42.144;24.794;2023-05-29T12:05:32;7.23;;;3.20;;
5349;SDS011;2697;42.144;24.794;2023-05-29T12:08:09;4.67;;;3.23;;
5349;SDS011;2697;42.144;24.794;2023-05-29T12:10:34;11.37;;;3.93;;
5349;SDS011;2697;42.144;24.794;2023-05-29T12:13:00;5.77;;;3.03;;
5349;SDS011;2697;42.144;24.794;2023-05-29T12:15:28;4.47;;;3.67;;
5349;SDS011;2697;42.144;24.794;2023-05-29T12:17:54;8.38;;;3.10;;
5349;SDS011;2697;42.144;24.794;2023-05-29T12:20:24;4.40;;;2.20;;
5349;SDS011;2697;42.144;24.794;2023-05-29T12:22:53;8.03;;;2.60;;
5349;SDS011;2697;42.144;24.794;2023-05-29T12:25:26;8.13;;;3.10;;
5349;SDS011;2697;42.144;24.794;2023-05-29T12:27:51;16.03;;;2.50;;
5349;SDS011;2697;42.144;24.794;2023-05-29T12:30:20;5.80;;;3.23;;
5349;SDS011;2697;42.144;24.794;2023-05-29T12:32:47;4.07;;;2.90;;
5349;SDS011;2697;42.144;24.794;2023-05-29T12:35:15;6.40;;;2.97;;
5349;SDS011;2697;42.144;24.794;2023-05-29T12:40:27;6.70;;;1.93;;
5349;SDS011;2697;42.144;24.794;2023-05-29T12:43:02;4.23;;;1.90;;
5349;SDS011;2697;42.144;24.794;2023-05-29T12:45:30;2.80;;;2.37;;
5349;SDS011;2697;42.144;24.794;2023-05-29T12:47:58;6.20;;;2.30;;
5349;SDS011;2697;42.144;24.794;2023-05-29T12:50:40;5.10;;;2.10;;
5349;SDS011;2697;42.144;24.794;2023-05-29T12:53:07;4.80;;;3.00;;
5349;SDS011;2697;42.144;24.794;2023-05-29T12:55:41;3.73;;;2.20;;
5349;SDS011;2697;42.144;24.794;2023-05-29T12:58:11;6.03;;;2.10;;
5349;SDS011;2697;42.144;24.794;2023-05-29T13:00:38;3.87;;;2.43;;
5349;SDS011;2697;42.144;24.794;2023-05-29T13:03:05;5.50;;;2.37;;
5349;SDS011;2697;42.144;24.794;2023-05-29T13:05:31;3.13;;;2.10;;
5349;SDS011;2697;42.144;24.794;2023-05-29T13:07:57;3.17;;;2.00;;
5349;SDS011;2697;42.144;24.794;2023-05-29T13:10:23;3.70;;;2.00;;
5349;SDS011;2697;42.144;24.794;2023-05-29T13:12:50;5.93;;;2.57;;
5349;SDS011;2697;42.144;24.794;2023-05-29T13:15:24;9.53;;;2.00;;
5349;SDS011;2697;42.144;24.794;2023-05-29T13:17:49;4.83;;;2.33;;
5349;SDS011;2697;42.144;24.794;2023-05-29T13:20:16;3.23;;;2.50;;
5349;SDS011;2697;42.144;24.794;2023-05-29T13:22:43;5.23;;;2.63;;
5349;SDS011;2697;42.144;24.794;2023-05-29T13:25:11;4.67;;;2.20;;
5349;SDS011;2697;42.144;24.794;2023-05-29T13:27:38;5.90;;;2.70;;
5349;SDS011;2697;42.144;24.794;2023-05-29T13:30:07;4.53;;;2.73;;
5349;SDS011;2697;42.144;24.794;2023-05-29T13:32:33;10.40;;;3.20;;
5349;SDS011;2697;42.144;24.794;2023-05-29T13:34:59;8.10;;;2.50;;
5349;SDS011;2697;42.144;24.794;2023-05-29T13:37:25;4.87;;;1.80;;
5349;SDS011;2697;42.144;24.794;2023-05-29T13:39:52;5.70;;;2.67;;
5349;SDS011;2697;42.144;24.794;2023-05-29T13:42:18;3.17;;;2.43;;
5349;SDS011;2697;42.144;24.794;2023-05-29T13:44:44;11.30;;;2.13;;
5349;SDS011;2697;42.144;24.794;2023-05-29T13:47:10;2.90;;;2.03;;
5349;SDS011;2697;42.144;24.794;2023-05-29T13:49:35;4.97;;;2.17;;
5349;SDS011;2697;42.144;24.794;2023-05-29T13:52:01;7.13;;;2.40;;
5349;SDS011;2697;42.144;24.794;2023-05-29T13:54:27;7.93;;;3.43;;
5349;SDS011;2697;42.144;24.794;2023-05-29T13:57:00;11.70;;;3.73;;
5349;SDS011;2697;42.144;24.794;2023-05-29T13:59:26;9.33;;;4.20;;
5349;SDS011;2697;42.144;24.794;2023-05-29T14:01:52;5.67;;;3.23;;
5349;SDS011;2697;42.144;24.794;2023-05-29T14:04:17;13.87;;;3.77;;
5349;SDS011;2697;42.144;24.794;2023-05-29T14:06:42;13.43;;;4.10;;
5349;SDS011;2697;42.144;24.794;2023-05-29T14:09:08;8.00;;;2.90;;
5349;SDS011;2697;42.144;24.794;2023-05-29T14:11:35;4.93;;;2.53;;
5349;SDS011;2697;42.144;24.794;2023-05-29T14:14:03;11.47;;;3.67;;
5349;SDS011;2697;42.144;24.794;2023-05-29T14:16:29;12.10;;;5.13;;
5349;SDS011;2697;42.144;24.794;2023-05-29T14:18:55;7.00;;;3.90;;
5349;SDS011;2697;42.144;24.794;2023-05-29T14:21:20;8.90;;;3.80;;
5349;SDS011;2697;42.144;24.794;2023-05-29T14:23:46;8.63;;;4.30;;
5349;SDS011;2697;42.144;24.794;2023-05-29T14:26:11;8.50;;;4.00;;
5349;SDS011;2697;42.144;24.794;2023-05-29T14:28:37;6.60;;;4.00;;
5349;SDS011;2697;42.144;24.794;2023-05-29T14:31:04;14.23;;;3.80;;
5349;SDS011;2697;42.144;24.794;2023-05-29T14:33:30;6.13;;;3.87;;
5349;SDS011;2697;42.144;24.794;2023-05-29T14:35:56;8.23;;;4.00;;
5349;SDS011;2697;42.144;24.794;2023-05-29T14:38:22;7.63;;;4.30;;
5349;SDS011;2697;42.144;24.794;2023-05-29T14:40:47;8.20;;;4.23;;
5349;SDS011;2697;42.144;24.794;2023-05-29T14:43:13;6.60;;;4.47;;
5349;SDS011;2697;42.144;24.794;2023-05-29T14:45:38;6.43;;;3.53;;
5349;SDS011;2697;42.144;24.794;2023-05-29T14:48:04;7.00;;;3.97;;
5349;SDS011;2697;42.144;24.794;2023-05-29T14:50:29;4.50;;;4.10;;
5349;SDS011;2697;42.144;24.794;2023-05-29T14:52:55;15.20;;;5.43;;
5349;SDS011;2697;42.144;24.794;2023-05-29T14:55:20;6.40;;;3.93;;
5349;SDS011;2697;42.144;24.794;2023-05-29T14:57:46;8.50;;;4.70;;
5349;SDS011;2697;42.144;24.794;2023-05-29T15:00:11;13.30;;;6.33;;
5349;SDS011;2697;42.144;24.794;2023-05-29T15:02:37;17.37;;;6.47;;
5349;SDS011;2697;42.144;24.794;2023-05-29T15:05:04;13.00;;;5.77;;
5349;SDS011;2697;42.144;24.794;2023-05-29T15:07:30;7.40;;;5.50;;
5349;SDS011;2697;42.144;24.794;2023-05-29T15:09:56;16.20;;;7.60;;
5349;SDS011;2697;42.144;24.794;2023-05-29T15:12:21;18.40;;;8.83;;
5349;SDS011;2697;42.144;24.794;2023-05-29T15:14:46;19.03;;;9.00;;